createdAt,value
2022-09-20T00:01:07.904Z,86.94
2022-09-20T00:03:36.536Z,86.87
2022-09-20T00:06:06.348Z,87.51
2022-09-20T00:08:35.688Z,87.53
2022-09-20T00:11:04.082Z,88.37
2022-09-20T00:13:32.212Z,87.79
2022-09-20T00:16:00.876Z,88.31
2022-09-20T00:18:28.712Z,88.86
2022-09-20T00:20:56.537Z,88.87
2022-09-20T00:23:24.395Z,89.20
2022-09-20T00:25:58.308Z,89.19
2022-09-20T00:28:27.234Z,89.92
2022-09-20T00:30:56.301Z,89.25
2022-09-20T00:33:26.339Z,89.32
2022-09-20T00:35:53.130Z,90.07
2022-09-20T00:38:20.978Z,89.79
2022-09-20T00:40:48.758Z,89.70
2022-09-20T00:43:19.149Z,90.02
2022-09-20T00:45:50.472Z,90.12
2022-09-20T00:48:26.535Z,89.33
2022-09-20T00:50:59.256Z,89.75
2022-09-20T00:53:30.232Z,89.79
2022-09-20T00:56:02.060Z,89.47
2022-09-20T00:58:34.121Z,89.50
2022-09-20T01:01:02.087Z,89.42
2022-09-20T01:03:33.658Z,88.78
2022-09-20T01:06:05.050Z,88.70
2022-09-20T01:08:35.294Z,88.79
2022-09-20T01:11:03.737Z,88.87
2022-09-20T01:13:32.892Z,88.15
2022-09-20T01:16:03.637Z,88.77
2022-09-20T01:18:34.621Z,89.37
2022-09-20T01:21:03.593Z,89.34
2022-09-20T01:23:45.023Z,89.03
2022-09-20T01:26:39.289Z,89.46
2022-09-20T01:29:20.409Z,90.09
2022-09-20T01:31:54.594Z,89.88
2022-09-20T01:34:29.560Z,90.15
2022-09-20T01:37:06.152Z,89.95
2022-09-20T01:39:43.969Z,89.34
2022-09-20T01:42:14.108Z,89.82
2022-09-20T01:44:53.272Z,89.03
2022-09-20T01:47:31.722Z,89.16
2022-09-20T01:50:08.561Z,89.42
2022-09-20T01:53:16.013Z,89.64
2022-09-20T01:56:02.402Z,90.13
2022-09-20T01:59:25.026Z,89.50
2022-09-20T02:02:12.570Z,90.20
2022-09-20T02:05:13.134Z,90.46
2022-09-20T02:08:17.592Z,90.87
2022-09-20T02:11:07.082Z,91.81
2022-09-20T02:13:51.672Z,91.70
2022-09-20T02:16:37.349Z,92.61
2022-09-20T02:19:28.634Z,92.56
2022-09-20T02:22:11.231Z,92.67
2022-09-20T02:24:46.764Z,92.87
2022-09-20T02:27:24.178Z,93.83
2022-09-20T02:30:05.607Z,93.67
2022-09-20T02:32:47.702Z,93.80
2022-09-20T02:35:27.192Z,94.69
2022-09-20T02:38:26.806Z,94.71
2022-09-20T02:41:15.304Z,95.40
2022-09-20T02:43:52.976Z,95.48
2022-09-20T02:46:28.632Z,96.41
2022-09-20T02:49:03.646Z,96.20
2022-09-20T02:51:40.942Z,96.04
2022-09-20T02:54:23.395Z,97.69
2022-09-20T02:57:00.935Z,96.08
2022-09-20T02:59:36.530Z,97.09
2022-09-20T03:02:12.023Z,96.80
2022-09-20T03:04:56.577Z,96.67
2022-09-20T03:07:33.417Z,97.02
2022-09-20T03:10:12.302Z,97.64
2022-09-20T03:12:53.549Z,97.50
2022-09-20T03:15:30.621Z,97.62
2022-09-20T03:18:08.640Z,97.76
2022-09-20T03:20:48.048Z,98.01
2022-09-20T03:23:33.046Z,98.34
2022-09-20T03:26:08.324Z,98.20
2022-09-20T03:28:49.131Z,98.84
2022-09-20T03:31:31.022Z,98.56
2022-09-20T03:34:13.250Z,99.11
2022-09-20T03:36:53.484Z,99.12
2022-09-20T03:39:47.407Z,100.00
2022-09-20T03:42:17.645Z,100.00
2022-09-20T03:45:08.482Z,100.00
2022-09-20T03:47:55.543Z,100.00
2022-09-20T03:50:48.114Z,100.00
2022-09-20T03:53:34.951Z,100.00
2022-09-20T03:56:35.736Z,100.00
2022-09-20T03:59:19.222Z,100.00
2022-09-20T04:02:09.409Z,100.00
2022-09-20T04:04:45.554Z,100.00
2022-09-20T04:07:21.294Z,100.00
2022-09-20T04:10:13.776Z,100.00
2022-09-20T04:13:00.424Z,100.00
2022-09-20T04:15:37.903Z,100.00
2022-09-20T04:18:19.421Z,100.00
2022-09-20T04:20:52.018Z,100.00
2022-09-20T04:23:33.217Z,100.00
2022-09-20T04:26:04.127Z,100.00
2022-09-20T04:28:40.717Z,100.00
2022-09-20T04:31:22.339Z,100.00
2022-09-20T04:33:52.190Z,100.00
2022-09-20T04:36:36.702Z,100.00
2022-09-20T04:39:18.202Z,100.00
2022-09-20T04:42:35.008Z,100.00
2022-09-20T04:45:31.044Z,100.00
2022-09-20T04:48:44.957Z,100.00
2022-09-20T04:51:35.827Z,100.00
2022-09-20T04:54:36.479Z,100.00
2022-09-20T04:57:42.315Z,100.00
2022-09-20T05:00:14.240Z,100.00
2022-09-20T05:03:13.422Z,100.00
2022-09-20T05:06:07.557Z,100.00
2022-09-20T05:09:15.014Z,99.12
2022-09-20T05:12:18.928Z,99.27
2022-09-20T05:15:08.182Z,98.29
2022-09-20T05:18:09.946Z,97.18
2022-09-20T05:21:20.539Z,96.77
2022-09-20T05:24:01.192Z,97.63
2022-09-20T05:26:41.661Z,96.88
2022-09-20T05:29:16.085Z,97.06
2022-09-20T05:31:52.617Z,96.05
2022-09-20T05:34:32.191Z,96.57
2022-09-20T05:37:05.621Z,96.57
2022-09-20T05:39:42.917Z,96.50
2022-09-20T05:42:19.598Z,96.47
2022-09-20T05:44:58.130Z,95.81
2022-09-20T05:47:35.979Z,94.69
2022-09-20T05:50:29.353Z,94.34
2022-09-20T05:53:05.443Z,93.32
2022-09-20T05:55:52.873Z,93.89
2022-09-20T05:58:47.565Z,93.29
2022-09-20T06:01:21.891Z,93.80
2022-09-20T06:03:55.806Z,94.23
2022-09-20T06:06:32.907Z,93.22
2022-09-20T06:09:19.731Z,93.03
2022-09-20T06:12:17.973Z,92.85
2022-09-20T06:14:52.111Z,92.92
2022-09-20T06:17:28.571Z,93.57
2022-09-20T06:20:17.188Z,93.47
2022-09-20T06:22:49.068Z,93.98
2022-09-20T06:25:22.827Z,94.12
2022-09-20T06:27:54.658Z,93.68
2022-09-20T06:30:25.700Z,94.12
2022-09-20T06:32:58.026Z,95.62
2022-09-20T06:35:30.259Z,94.70
2022-09-20T06:38:30.297Z,94.27
2022-09-20T06:41:15.951Z,93.95
2022-09-20T06:43:43.701Z,93.73
2022-09-20T06:46:11.949Z,93.65
2022-09-20T06:48:40.279Z,93.55
2022-09-20T06:51:09.667Z,93.22
2022-09-20T06:53:41.934Z,92.33
2022-09-20T06:56:14.507Z,91.12
2022-09-20T06:58:42.262Z,90.88
2022-09-20T07:01:10.173Z,90.87
2022-09-20T07:03:38.491Z,90.74
2022-09-20T07:06:06.635Z,89.63
2022-09-20T07:08:34.457Z,89.76
2022-09-20T07:11:06.638Z,89.86
2022-09-20T07:13:34.408Z,89.05
2022-09-20T07:16:03.527Z,89.46
2022-09-20T07:18:33.362Z,89.84
2022-09-20T07:21:01.339Z,89.69
2022-09-20T07:23:31.349Z,89.86
2022-09-20T07:26:00.724Z,89.00
2022-09-20T07:28:30.568Z,88.17
2022-09-20T07:30:58.499Z,87.78
2022-09-20T07:33:26.273Z,86.49
2022-09-20T07:35:55.793Z,83.50
2022-09-20T07:38:24.249Z,82.75
2022-09-20T07:40:57.177Z,82.43
2022-09-20T07:43:25.541Z,80.76
2022-09-20T07:45:56.330Z,79.42
2022-09-20T07:48:25.908Z,79.19
2022-09-20T07:50:55.100Z,78.82
2022-09-20T07:53:23.484Z,77.87
2022-09-20T07:55:58.840Z,77.33
2022-09-20T07:58:27.149Z,77.65
2022-09-20T08:00:57.591Z,76.91
2022-09-20T08:03:26.008Z,77.44
2022-09-20T08:05:59.917Z,76.21
2022-09-20T08:08:29.034Z,75.21
2022-09-20T08:11:06.765Z,74.07
2022-09-20T08:16:27.981Z,72.11
2022-09-20T08:18:58.854Z,72.69
2022-09-20T08:21:28.544Z,71.81
2022-09-20T08:23:56.600Z,71.76
2022-09-20T08:26:26.339Z,71.88
2022-09-20T08:28:56.422Z,72.04
2022-09-20T08:31:27.215Z,72.33
2022-09-20T08:33:55.537Z,71.61
2022-09-20T08:36:24.661Z,70.39
2022-09-20T08:41:47.759Z,69.35
2022-09-20T08:44:19.789Z,68.28
2022-09-20T08:46:51.074Z,68.66
2022-09-20T08:49:27.254Z,69.07
2022-09-20T08:51:58.169Z,68.66
2022-09-20T08:54:32.279Z,70.33
2022-09-20T08:57:05.535Z,69.38
2022-09-20T08:59:34.658Z,68.71
2022-09-20T09:02:03.928Z,68.69
2022-09-20T09:04:36.704Z,69.75
2022-09-20T09:07:05.998Z,70.10
2022-09-20T09:09:37.956Z,69.94
2022-09-20T09:12:06.957Z,69.60
2022-09-20T09:14:55.056Z,69.33
2022-09-20T09:17:27.881Z,70.84
2022-09-20T09:19:57.479Z,70.30
2022-09-20T09:22:32.211Z,70.34
2022-09-20T09:25:32.238Z,69.83
2022-09-20T09:28:02.614Z,70.38
2022-09-20T09:30:33.300Z,69.65
2022-09-20T09:33:29.700Z,69.19
2022-09-20T09:36:00.214Z,68.70
2022-09-20T09:38:30.141Z,66.87
2022-09-20T09:40:59.743Z,65.75
2022-09-20T09:43:30.176Z,65.19
2022-09-20T09:46:18.726Z,64.05
2022-09-20T09:48:50.230Z,61.99
2022-09-20T09:51:20.725Z,60.81
2022-09-20T09:53:50.185Z,62.68
2022-09-20T09:56:47.255Z,63.69
2022-09-20T09:59:28.388Z,61.72
2022-09-20T10:02:05.342Z,61.01
2022-09-20T10:04:41.515Z,60.55
2022-09-20T10:07:16.084Z,58.98
2022-09-20T10:10:01.410Z,57.46
2022-09-20T10:12:45.850Z,55.45
2022-09-20T10:15:29.732Z,54.93
2022-09-20T10:18:09.787Z,53.60
2022-09-20T10:20:53.175Z,53.59
2022-09-20T10:26:48.154Z,54.05
2022-09-20T10:29:26.234Z,52.53
2022-09-20T10:32:03.816Z,54.39
2022-09-20T10:35:10.776Z,54.93
2022-09-20T10:37:52.932Z,52.45
2022-09-20T10:40:50.509Z,52.21
2022-09-20T10:43:31.058Z,54.38
2022-09-20T10:46:31.195Z,52.90
2022-09-20T10:49:05.698Z,54.01
2022-09-20T10:51:47.209Z,54.22
2022-09-20T10:54:35.032Z,54.64
2022-09-20T10:57:18.562Z,55.60
2022-09-20T10:59:55.642Z,56.58
2022-09-20T11:02:42.794Z,56.16
2022-09-20T11:05:31.394Z,54.45
2022-09-20T11:08:11.976Z,53.54
2022-09-20T11:10:45.831Z,49.94
2022-09-20T11:13:27.795Z,51.11
2022-09-20T11:16:01.652Z,53.74
2022-09-20T11:18:35.746Z,55.37
2022-09-20T11:21:09.793Z,56.07
2022-09-20T11:23:46.600Z,55.24
2022-09-20T11:26:23.690Z,54.57
2022-09-20T11:28:55.267Z,53.59
2022-09-20T11:31:27.508Z,53.26
2022-09-20T11:34:00.346Z,49.94
2022-09-20T11:36:33.396Z,50.65
2022-09-20T11:39:08.531Z,47.53
2022-09-20T11:41:38.218Z,48.43
2022-09-20T11:44:12.134Z,48.94
2022-09-20T11:46:45.331Z,51.99
2022-09-20T11:49:17.754Z,53.50
2022-09-20T11:52:10.868Z,54.10
2022-09-20T11:55:06.367Z,55.91
2022-09-20T11:57:35.818Z,51.69
2022-09-20T12:00:08.020Z,48.06
2022-09-20T12:02:39.276Z,44.73
2022-09-20T12:05:08.942Z,44.67
2022-09-20T12:07:40.457Z,42.08
2022-09-20T12:10:22.802Z,43.32
2022-09-20T12:12:58.529Z,41.31
2022-09-20T12:15:30.536Z,44.46
2022-09-20T12:18:13.482Z,44.98
2022-09-20T12:21:06.653Z,45.11
2022-09-20T12:24:02.616Z,42.28
2022-09-20T12:26:39.849Z,41.66
2022-09-20T12:29:54.232Z,39.77
2022-09-20T12:32:55.059Z,35.93
2022-09-20T12:35:56.994Z,37.99
2022-09-20T12:38:56.447Z,39.23
2022-09-20T12:41:28.701Z,42.69
2022-09-20T12:44:06.779Z,48.10
2022-09-20T12:46:41.995Z,49.68
2022-09-20T12:50:01.912Z,49.39
2022-09-20T12:52:56.359Z,51.56
2022-09-20T12:55:34.526Z,54.66
2022-09-20T12:58:05.953Z,57.75
2022-09-20T13:00:39.003Z,59.58
2022-09-20T13:03:28.427Z,59.10
2022-09-20T13:06:26.061Z,60.04
2022-09-20T13:08:59.174Z,59.99
2022-09-20T13:11:31.429Z,60.83
2022-09-20T13:14:02.059Z,62.28
2022-09-20T13:16:33.226Z,63.91
2022-09-20T13:19:05.666Z,65.24
2022-09-20T13:21:35.217Z,65.41
2022-09-20T13:24:03.531Z,65.09
2022-09-20T13:26:37.131Z,65.53
2022-09-20T13:29:10.116Z,64.37
2022-09-20T13:31:38.119Z,64.01
2022-09-20T13:34:21.722Z,65.65
2022-09-20T13:36:56.014Z,66.41
2022-09-20T13:39:28.324Z,65.29
2022-09-20T13:42:02.302Z,65.20
2022-09-20T13:44:34.399Z,67.27
2022-09-20T13:47:02.601Z,68.08
2022-09-20T13:49:33.748Z,70.31
2022-09-20T13:52:21.518Z,70.07
2022-09-20T13:54:49.334Z,72.55
2022-09-20T13:57:22.830Z,72.58
2022-09-20T13:59:52.919Z,72.77
2022-09-20T14:02:25.824Z,72.38
2022-09-20T14:04:56.952Z,71.96
2022-09-20T14:07:28.192Z,71.12
2022-09-20T14:09:58.209Z,69.46
2022-09-20T14:12:28.170Z,67.96
2022-09-20T14:14:56.838Z,67.47
2022-09-20T14:17:25.873Z,67.06
2022-09-20T14:19:57.536Z,66.40
2022-09-20T14:22:28.348Z,68.34
2022-09-20T14:25:02.718Z,65.84
2022-09-20T14:27:31.462Z,67.20
2022-09-20T14:29:59.812Z,70.72
2022-09-20T14:32:40.430Z,69.56
2022-09-20T14:35:17.224Z,69.11
2022-09-20T14:37:47.817Z,70.16
2022-09-20T14:40:22.810Z,73.13
2022-09-20T14:42:54.552Z,72.74
2022-09-20T14:45:25.689Z,71.66
2022-09-20T14:48:10.323Z,71.06
2022-09-20T14:50:42.231Z,71.49
2022-09-20T14:53:26.690Z,71.04
2022-09-20T14:56:13.229Z,71.42
2022-09-20T14:59:06.926Z,71.81
2022-09-20T15:01:37.074Z,74.32
2022-09-20T15:04:10.297Z,71.87
2022-09-20T15:06:40.209Z,74.94
2022-09-20T15:09:11.229Z,78.22
2022-09-20T15:11:39.519Z,74.68
2022-09-20T15:14:08.417Z,74.69
2022-09-20T15:16:36.426Z,74.16
2022-09-20T15:19:05.786Z,74.57
2022-09-20T15:21:33.653Z,74.23
2022-09-20T15:24:03.137Z,72.58
2022-09-20T15:26:32.903Z,71.05
2022-09-20T15:29:00.891Z,71.74
2022-09-20T15:31:29.116Z,70.97
2022-09-20T15:33:56.932Z,71.16
2022-09-20T15:36:24.731Z,75.37
2022-09-20T15:38:54.892Z,74.82
2022-09-20T15:41:27.964Z,75.67
2022-09-20T15:43:58.377Z,74.17
2022-09-20T15:46:27.575Z,75.25
2022-09-20T15:48:56.319Z,74.84
2022-09-20T15:51:24.170Z,75.03
2022-09-20T15:53:57.961Z,75.78
2022-09-20T15:56:28.938Z,76.68
2022-09-20T15:59:00.329Z,76.30
2022-09-20T16:01:29.854Z,75.36
2022-09-20T16:03:57.783Z,74.11
2022-09-20T16:06:26.322Z,74.98
2022-09-20T16:08:54.330Z,74.81
2022-09-20T16:11:23.240Z,74.96
2022-09-20T16:13:56.067Z,73.95
2022-09-20T16:16:24.015Z,73.24
2022-09-20T16:19:09.315Z,70.16
2022-09-20T16:21:39.251Z,65.14
2022-09-20T16:24:08.981Z,62.43
2022-09-20T16:26:38.243Z,61.59
2022-09-20T16:29:08.291Z,60.69
2022-09-20T16:31:40.232Z,54.88
2022-09-20T16:34:13.569Z,54.63
2022-09-20T16:36:43.357Z,57.12
2022-09-20T16:39:12.823Z,58.63
2022-09-20T16:41:40.951Z,61.09
2022-09-20T16:44:10.672Z,64.20
2022-09-20T16:46:38.652Z,66.45
2022-09-20T16:49:09.444Z,66.44
2022-09-20T16:51:39.184Z,69.40
2022-09-20T16:54:11.708Z,70.08
2022-09-20T16:56:41.334Z,70.52
2022-09-20T16:59:10.830Z,72.37
2022-09-20T17:01:39.829Z,73.37
2022-09-20T17:04:08.575Z,74.17
2022-09-20T17:06:39.071Z,74.07
2022-09-20T17:09:08.062Z,74.97
2022-09-20T17:11:39.298Z,76.43
2022-09-20T17:14:07.994Z,77.29
2022-09-20T17:16:39.208Z,78.08
2022-09-20T17:19:08.973Z,78.81
2022-09-20T17:21:39.231Z,79.70
2022-09-20T17:24:08.415Z,78.99
2022-09-20T17:26:38.550Z,79.03
2022-09-20T17:29:10.156Z,80.97
2022-09-20T17:31:41.779Z,81.79
2022-09-20T17:34:11.627Z,82.67
2022-09-20T17:36:41.917Z,84.14
2022-09-20T17:39:12.278Z,84.98
2022-09-20T17:41:41.087Z,85.25
2022-09-20T17:44:10.125Z,85.53
2022-09-20T17:46:40.771Z,85.51
2022-09-20T17:49:10.642Z,86.12
2022-09-20T17:51:41.526Z,85.49
2022-09-20T17:54:13.858Z,85.86
2022-09-20T17:56:43.573Z,87.33
2022-09-20T17:59:12.771Z,87.18
2022-09-20T18:01:41.978Z,88.86
2022-09-20T18:04:10.668Z,88.93
2022-09-20T18:06:42.184Z,88.76
2022-09-20T18:09:12.518Z,87.96
2022-09-20T18:11:41.747Z,88.39
2022-09-20T18:14:11.350Z,87.95
2022-09-20T18:16:39.682Z,87.16
2022-09-20T18:19:10.237Z,87.02
2022-09-20T18:21:40.898Z,87.10
2022-09-20T18:24:10.669Z,87.43
2022-09-20T18:26:39.309Z,87.38
2022-09-20T18:29:09.550Z,87.33
2022-09-20T18:31:38.765Z,87.33
2022-09-20T18:34:11.138Z,87.59
2022-09-20T18:36:40.574Z,87.80
2022-09-20T18:39:09.030Z,87.54
2022-09-20T18:41:41.099Z,87.77
2022-09-20T18:44:09.819Z,87.42
2022-09-20T18:46:39.157Z,86.48
2022-09-20T18:49:09.674Z,86.73
2022-09-20T18:51:39.935Z,86.93
2022-09-20T18:54:10.193Z,86.69
2022-09-20T18:56:39.942Z,86.59
2022-09-20T18:59:09.802Z,86.48
2022-09-20T19:02:14.400Z,87.63
2022-09-20T19:05:16.838Z,88.12
2022-09-20T19:08:05.311Z,87.74
2022-09-20T19:10:42.950Z,88.07
2022-09-20T19:13:26.983Z,86.08
2022-09-20T19:16:07.340Z,84.94
2022-09-20T19:18:58.894Z,85.21
2022-09-20T19:21:36.613Z,85.51
2022-09-20T19:24:17.059Z,86.31
2022-09-20T19:26:45.931Z,85.94
2022-09-20T19:29:19.763Z,86.43
2022-09-20T19:31:49.502Z,86.30
2022-09-20T19:34:21.536Z,86.60
2022-09-20T19:37:18.844Z,86.88
2022-09-20T19:40:04.569Z,86.76
2022-09-20T19:42:43.290Z,86.16
2022-09-20T19:45:21.963Z,86.86
2022-09-20T19:48:01.980Z,85.57
2022-09-20T19:50:36.117Z,86.29
2022-09-20T19:53:06.139Z,89.06
2022-09-20T19:55:35.033Z,89.28
2022-09-20T19:58:03.904Z,89.87
2022-09-20T20:00:32.451Z,90.19
2022-09-20T20:03:01.234Z,89.49
2022-09-20T20:05:29.720Z,90.79
2022-09-20T20:08:14.024Z,90.62
2022-09-20T20:10:54.608Z,91.43
2022-09-20T20:13:50.726Z,93.08
2022-09-20T20:16:25.192Z,93.20
2022-09-20T20:19:06.938Z,94.72
2022-09-20T20:21:46.339Z,94.08
2022-09-20T20:24:27.903Z,93.20
2022-09-20T20:26:55.753Z,92.77
2022-09-20T20:29:23.658Z,93.68
2022-09-20T20:31:51.488Z,93.58
2022-09-20T20:34:20.579Z,94.28
2022-09-20T20:36:48.426Z,94.99
2022-09-20T20:39:16.648Z,94.98
2022-09-20T20:41:52.484Z,94.63
2022-09-20T20:44:20.831Z,95.68
2022-09-20T20:46:48.674Z,96.50
2022-09-20T20:49:17.585Z,96.16
2022-09-20T20:51:45.363Z,95.84
2022-09-20T20:54:13.174Z,96.58
2022-09-20T20:56:41.080Z,96.53
2022-09-20T20:59:10.199Z,97.74
2022-09-20T21:01:39.618Z,97.39
2022-09-20T21:04:07.906Z,98.13
2022-09-20T21:06:37.333Z,99.32
2022-09-20T21:09:06.393Z,99.67
2022-09-20T21:11:36.222Z,99.54
2022-09-20T21:14:06.632Z,100.00
2022-09-20T21:16:38.580Z,100.00
2022-09-20T21:19:09.678Z,100.00
2022-09-20T21:21:39.676Z,100.00
2022-09-20T21:24:09.738Z,100.00
2022-09-20T21:26:39.804Z,100.00
2022-09-20T21:29:09.097Z,100.00
2022-09-20T21:31:41.570Z,100.00
2022-09-20T21:34:12.413Z,100.00
2022-09-20T21:36:41.585Z,100.00
2022-09-20T21:39:09.655Z,100.00
2022-09-20T21:41:39.361Z,100.00
2022-09-20T21:44:09.846Z,100.00
2022-09-20T21:46:40.462Z,100.00
2022-09-20T21:49:09.620Z,100.00
2022-09-20T21:51:38.304Z,100.00
2022-09-20T21:54:06.718Z,100.00
2022-09-20T21:56:36.298Z,100.00
2022-09-20T21:59:07.162Z,100.00
2022-09-20T22:01:37.043Z,100.00
2022-09-20T22:04:07.968Z,100.00
2022-09-20T22:06:37.904Z,100.00
2022-09-20T22:09:07.802Z,100.00
2022-09-20T22:11:39.415Z,100.00
2022-09-20T22:14:08.112Z,100.00
2022-09-20T22:16:38.265Z,100.00
2022-09-20T22:19:11.184Z,100.00
2022-09-20T22:21:40.557Z,100.00
2022-09-20T22:24:10.532Z,100.00
2022-09-20T22:26:39.899Z,100.00
2022-09-20T22:29:08.191Z,100.00
2022-09-20T22:31:37.853Z,100.00
2022-09-20T22:34:08.297Z,100.00
2022-09-20T22:36:38.187Z,100.00
2022-09-20T22:39:07.569Z,100.00
2022-09-20T22:41:36.173Z,100.00
2022-09-20T22:44:04.313Z,100.00
2022-09-20T22:46:33.510Z,100.00
2022-09-20T22:49:01.799Z,100.00
2022-09-20T22:51:33.300Z,100.00
2022-09-20T22:54:01.568Z,100.00
2022-09-20T22:56:31.233Z,100.00
2022-09-20T22:59:01.050Z,100.00
2022-09-20T23:01:30.683Z,100.00
2022-09-20T23:04:00.906Z,100.00
2022-09-20T23:06:31.760Z,100.00
2022-09-20T23:09:02.027Z,100.00
2022-09-20T23:11:30.421Z,100.00
2022-09-20T23:13:59.733Z,100.00
2022-09-20T23:16:29.475Z,100.00
2022-09-20T23:18:59.311Z,100.00
2022-09-20T23:21:27.576Z,100.00
2022-09-20T23:23:58.280Z,100.00
2022-09-20T23:26:27.666Z,100.00
2022-09-20T23:28:57.391Z,100.00
2022-09-20T23:31:26.264Z,100.00
2022-09-20T23:33:56.282Z,100.00
2022-09-20T23:36:25.405Z,100.00
2022-09-20T23:38:53.206Z,100.00
2022-09-20T23:41:24.124Z,100.00
2022-09-20T23:43:52.562Z,100.00
2022-09-20T23:46:21.807Z,100.00
2022-09-20T23:48:50.463Z,100.00
2022-09-20T23:51:20.152Z,100.00
2022-09-20T23:53:48.173Z,100.00
2022-09-20T23:56:16.157Z,100.00
2022-09-20T23:58:45.903Z,100.00
